createdAt,value
2018-07-31T00:01:34.878Z,5.08
2018-07-31T00:04:03.246Z,5.20
2018-07-31T00:06:32.236Z,4.72
2018-07-31T00:09:00.674Z,5.10
2018-07-31T00:11:29.419Z,5.60
2018-07-31T00:13:57.884Z,5.85
2018-07-31T00:16:26.486Z,5.15
2018-07-31T00:18:54.902Z,4.95
2018-07-31T00:21:23.700Z,5.05
2018-07-31T00:23:52.084Z,5.50
2018-07-31T00:26:21.954Z,4.72
2018-07-31T00:28:50.371Z,5.37
2018-07-31T00:34:11.604Z,5.00
2018-07-31T00:36:40.122Z,5.47
2018-07-31T00:39:09.644Z,5.55
2018-07-31T00:41:38.074Z,5.17
2018-07-31T00:44:06.581Z,5.67
2018-07-31T00:46:35.171Z,5.42
2018-07-31T00:49:03.675Z,5.37
2018-07-31T00:51:32.848Z,5.45
2018-07-31T00:54:01.232Z,5.20
2018-07-31T00:56:29.730Z,5.85
2018-07-31T00:58:58.093Z,5.10
2018-07-31T01:01:26.598Z,4.97
2018-07-31T01:03:55.154Z,5.12
2018-07-31T01:06:33.072Z,5.40
2018-07-31T01:09:01.865Z,5.53
2018-07-31T01:11:30.548Z,5.12
2018-07-31T01:13:58.976Z,5.45
2018-07-31T01:16:27.328Z,5.20
2018-07-31T01:18:55.884Z,5.65
2018-07-31T01:21:24.526Z,4.83
2018-07-31T01:23:53.316Z,5.20
2018-07-31T01:26:21.824Z,5.08
2018-07-31T01:28:50.718Z,5.53
2018-07-31T01:31:19.150Z,5.15
2018-07-31T01:33:47.606Z,5.80
2018-07-31T01:36:16.052Z,6.15
2018-07-31T01:38:45.049Z,6.10
2018-07-31T01:41:13.960Z,5.87
2018-07-31T01:43:42.352Z,6.17
2018-07-31T01:46:10.818Z,5.78
2018-07-31T01:48:39.588Z,5.35
2018-07-31T01:51:08.700Z,6.03
2018-07-31T01:53:37.182Z,5.42
2018-07-31T01:56:05.572Z,5.80
2018-07-31T01:58:34.913Z,5.80
2018-07-31T02:01:03.314Z,5.33
2018-07-31T02:03:31.802Z,5.37
2018-07-31T02:06:00.578Z,5.40
2018-07-31T02:08:29.226Z,5.50
2018-07-31T02:11:00.058Z,5.62
2018-07-31T02:13:28.632Z,5.78
2018-07-31T02:15:57.927Z,5.67
2018-07-31T02:18:26.526Z,5.80
2018-07-31T02:21:00.204Z,5.80
2018-07-31T02:23:29.714Z,5.05
2018-07-31T02:25:58.408Z,5.85
2018-07-31T02:28:27.378Z,5.50
2018-07-31T02:30:56.090Z,6.28
2018-07-31T02:33:25.066Z,5.83
2018-07-31T02:35:53.722Z,5.70
2018-07-31T02:38:22.692Z,5.58
2018-07-31T02:40:51.537Z,6.22
2018-07-31T02:43:20.267Z,6.10
2018-07-31T02:45:49.026Z,5.83
2018-07-31T02:48:17.966Z,6.08
2018-07-31T02:53:44.123Z,5.92
2018-07-31T02:56:13.115Z,5.62
2018-07-31T02:58:41.848Z,5.47
2018-07-31T03:01:11.776Z,5.62
2018-07-31T03:03:40.369Z,5.60
2018-07-31T03:06:09.004Z,5.87
2018-07-31T03:08:37.592Z,5.42
2018-07-31T03:11:06.760Z,5.87
2018-07-31T03:13:35.342Z,6.05
2018-07-31T03:16:04.030Z,6.28
2018-07-31T03:18:32.924Z,5.60
2018-07-31T03:21:02.802Z,6.22
2018-07-31T03:23:31.544Z,5.58
2018-07-31T03:26:00.356Z,6.28
2018-07-31T03:28:29.050Z,5.92
2018-07-31T03:31:02.806Z,6.35
2018-07-31T03:33:31.710Z,6.60
2018-07-31T03:36:00.298Z,6.05
2018-07-31T03:38:29.945Z,6.03
2018-07-31T03:40:58.580Z,5.95
2018-07-31T03:43:27.244Z,6.03
2018-07-31T03:45:55.825Z,6.15
2018-07-31T03:48:25.455Z,6.83
2018-07-31T03:50:54.247Z,6.05
2018-07-31T03:53:25.703Z,5.80
2018-07-31T03:55:55.803Z,6.33
2018-07-31T03:58:24.723Z,6.25
2018-07-31T04:01:02.809Z,6.15
2018-07-31T04:03:32.269Z,6.28
2018-07-31T04:06:02.449Z,6.55
2018-07-31T04:08:32.957Z,6.53
2018-07-31T04:11:11.051Z,6.40
2018-07-31T04:13:39.989Z,6.00
2018-07-31T04:16:08.978Z,6.50
2018-07-31T04:18:37.637Z,6.55
2018-07-31T04:21:06.430Z,6.08
2018-07-31T04:23:35.257Z,6.08
2018-07-31T04:26:03.905Z,6.40
2018-07-31T04:28:32.521Z,6.28
2018-07-31T04:31:01.248Z,5.67
2018-07-31T04:33:31.010Z,5.85
2018-07-31T04:35:59.731Z,6.22
2018-07-31T04:38:28.432Z,6.33
2018-07-31T04:40:57.383Z,6.00
2018-07-31T04:43:26.721Z,6.20
2018-07-31T04:45:55.148Z,6.33
2018-07-31T04:48:24.532Z,6.80
2018-07-31T04:50:53.077Z,6.67
2018-07-31T04:53:21.563Z,6.45
2018-07-31T04:55:50.003Z,6.40
2018-07-31T04:58:19.113Z,5.92
2018-07-31T05:00:47.748Z,6.17
2018-07-31T05:03:16.287Z,6.28
2018-07-31T05:05:44.622Z,6.28
2018-07-31T05:08:12.975Z,6.87
2018-07-31T05:10:41.631Z,5.92
2018-07-31T05:13:11.404Z,6.50
2018-07-31T05:15:40.285Z,6.17
2018-07-31T05:18:09.131Z,6.30
2018-07-31T05:20:42.269Z,6.37
2018-07-31T05:23:10.684Z,6.30
2018-07-31T05:25:40.019Z,6.45
2018-07-31T05:28:10.884Z,6.55
2018-07-31T05:30:44.496Z,6.50
2018-07-31T05:33:13.034Z,6.78
2018-07-31T05:35:41.569Z,6.28
2018-07-31T05:38:10.357Z,6.30
2018-07-31T05:40:38.912Z,6.20
2018-07-31T05:43:07.584Z,6.70
2018-07-31T05:45:36.223Z,6.00
2018-07-31T05:48:06.116Z,6.62
2018-07-31T05:50:40.122Z,6.10
2018-07-31T05:53:08.605Z,6.47
2018-07-31T05:55:37.299Z,5.97
2018-07-31T05:58:05.736Z,6.12
2018-07-31T06:00:34.235Z,6.00
2018-07-31T06:03:02.650Z,6.37
2018-07-31T06:05:31.155Z,5.83
2018-07-31T06:07:59.803Z,6.80
2018-07-31T06:10:28.431Z,6.90
2018-07-31T06:12:56.779Z,6.22
2018-07-31T06:15:26.436Z,6.70
2018-07-31T06:17:55.098Z,6.50
2018-07-31T06:20:28.613Z,6.08
2018-07-31T06:22:57.131Z,6.67
2018-07-31T06:25:25.739Z,7.03
2018-07-31T06:27:54.119Z,6.67
2018-07-31T06:30:22.646Z,5.70
2018-07-31T06:32:51.415Z,6.12
2018-07-31T06:35:20.147Z,6.22
2018-07-31T06:37:48.575Z,6.75
2018-07-31T06:40:17.441Z,6.10
2018-07-31T06:42:45.989Z,6.95
2018-07-31T06:45:14.469Z,7.37
2018-07-31T06:47:44.035Z,7.30
2018-07-31T06:50:12.515Z,6.62
2018-07-31T06:52:41.183Z,7.10
2018-07-31T06:55:09.723Z,5.97
2018-07-31T06:57:38.405Z,6.22
2018-07-31T07:00:06.995Z,6.78
2018-07-31T07:02:35.581Z,6.40
2018-07-31T07:05:04.336Z,6.75
2018-07-31T07:07:32.970Z,6.72
2018-07-31T07:10:01.640Z,6.83
2018-07-31T07:12:30.326Z,6.60
2018-07-31T07:14:59.415Z,6.58
2018-07-31T07:17:28.410Z,6.80
2018-07-31T07:19:57.837Z,7.08
2018-07-31T07:25:06.059Z,6.95
2018-07-31T07:27:34.991Z,6.95
2018-07-31T07:30:04.269Z,6.67
2018-07-31T07:32:38.193Z,5.92
2018-07-31T07:35:06.960Z,6.60
2018-07-31T07:37:36.031Z,6.58
2018-07-31T07:40:04.976Z,6.55
2018-07-31T07:42:38.717Z,7.20
2018-07-31T07:45:07.345Z,7.50
2018-07-31T07:47:36.384Z,6.90
2018-07-31T07:50:05.298Z,7.15
2018-07-31T07:52:34.063Z,6.72
2018-07-31T07:55:02.974Z,7.55
2018-07-31T07:57:32.047Z,7.30
2018-07-31T08:00:01.027Z,7.62
2018-07-31T08:02:29.552Z,7.70
2018-07-31T08:04:58.089Z,8.43
2018-07-31T08:07:26.492Z,8.00
2018-07-31T08:09:54.901Z,7.33
2018-07-31T08:12:23.468Z,7.37
2018-07-31T08:14:51.879Z,7.53
2018-07-31T08:17:20.385Z,7.45
2018-07-31T08:19:48.865Z,8.33
2018-07-31T08:22:17.323Z,7.33
2018-07-31T08:24:45.729Z,7.55
2018-07-31T08:27:14.207Z,7.25
2018-07-31T08:29:43.079Z,7.67
2018-07-31T08:32:11.673Z,7.35
2018-07-31T08:34:40.059Z,7.53
2018-07-31T08:37:08.548Z,7.25
2018-07-31T08:39:37.062Z,7.17
2018-07-31T08:42:05.640Z,7.67
2018-07-31T08:44:34.179Z,7.25
2018-07-31T08:47:03.151Z,7.25
2018-07-31T08:49:31.659Z,7.03
2018-07-31T08:52:00.145Z,7.10
2018-07-31T08:54:28.555Z,7.17
2018-07-31T08:56:56.989Z,7.60
2018-07-31T08:59:25.504Z,7.97
2018-07-31T09:01:53.910Z,7.35
2018-07-31T09:04:22.613Z,7.70
2018-07-31T09:06:51.123Z,7.03
2018-07-31T09:09:19.547Z,7.33
2018-07-31T09:11:48.009Z,7.20
2018-07-31T09:14:16.428Z,7.47
2018-07-31T09:16:44.896Z,7.40
2018-07-31T09:19:13.331Z,8.28
2018-07-31T09:21:41.759Z,7.50
2018-07-31T09:24:10.241Z,7.75
2018-07-31T09:26:38.666Z,7.45
2018-07-31T09:29:07.103Z,7.60
2018-07-31T09:31:35.669Z,7.17
2018-07-31T09:34:04.049Z,6.92
2018-07-31T09:36:33.266Z,7.55
2018-07-31T09:39:01.919Z,7.10
2018-07-31T09:41:30.481Z,7.17
2018-07-31T09:43:59.103Z,7.12
2018-07-31T09:46:28.158Z,6.87
2018-07-31T09:48:57.921Z,7.40
2018-07-31T09:51:26.508Z,7.45
2018-07-31T09:53:54.872Z,6.97
2018-07-31T09:56:23.351Z,7.37
2018-07-31T09:58:51.859Z,7.78
2018-07-31T10:01:20.720Z,7.30
2018-07-31T10:03:49.815Z,7.43
2018-07-31T11:45:07.428Z,5.92
2018-07-31T11:47:36.963Z,6.42
2018-07-31T11:50:05.594Z,8.03
2018-07-31T11:55:27.862Z,6.40
2018-07-31T11:57:58.108Z,6.78
2018-07-31T12:00:28.025Z,6.28
2018-07-31T12:03:23.852Z,5.90
2018-07-31T12:05:55.281Z,5.62
2018-07-31T12:08:24.512Z,6.20
2018-07-31T12:10:52.904Z,6.35
2018-07-31T12:13:21.619Z,6.27
2018-07-31T12:15:51.113Z,6.27
2018-07-31T12:18:19.607Z,6.40
2018-07-31T12:20:48.202Z,6.30
2018-07-31T12:23:16.599Z,6.33
2018-07-31T12:25:45.603Z,6.55
2018-07-31T12:28:16.402Z,6.20
2018-07-31T12:30:45.698Z,6.10
2018-07-31T12:33:14.261Z,6.22
2018-07-31T12:35:42.717Z,6.10
2018-07-31T12:38:11.382Z,6.00
2018-07-31T12:40:41.059Z,6.27
2018-07-31T12:43:10.178Z,6.53
2018-07-31T12:45:39.311Z,6.10
2018-07-31T12:48:07.919Z,6.37
2018-07-31T12:50:38.072Z,6.30
2018-07-31T12:53:06.527Z,6.30
2018-07-31T12:55:34.860Z,6.28
2018-07-31T12:58:03.341Z,6.33
2018-07-31T13:00:32.019Z,6.20
2018-07-31T13:03:00.688Z,6.15
2018-07-31T13:05:29.358Z,6.35
2018-07-31T13:07:57.894Z,6.17
2018-07-31T13:10:26.376Z,6.30
2018-07-31T13:12:56.284Z,6.47
2018-07-31T13:15:25.560Z,6.35
2018-07-31T13:18:01.440Z,6.40
2018-07-31T13:20:29.992Z,6.00
2018-07-31T13:22:58.426Z,6.37
2018-07-31T13:25:28.662Z,6.10
2018-07-31T13:27:57.699Z,6.60
2018-07-31T13:30:28.019Z,6.25
2018-07-31T13:32:58.201Z,6.20
2018-07-31T13:38:21.451Z,6.30
2018-07-31T13:40:50.097Z,6.53
2018-07-31T13:43:18.548Z,6.10
2018-07-31T13:45:46.950Z,6.10
2018-07-31T13:48:15.752Z,5.80
2018-07-31T13:50:44.306Z,6.15
2018-07-31T13:53:12.798Z,5.25
2018-07-31T13:55:41.293Z,5.42
2018-07-31T13:58:09.764Z,5.40
2018-07-31T14:00:38.314Z,5.12
2018-07-31T14:03:06.355Z,5.47
2018-07-31T14:05:34.869Z,5.92
2018-07-31T14:08:05.639Z,5.30
2018-07-31T14:10:34.687Z,6.00
2018-07-31T14:13:04.104Z,5.97
2018-07-31T14:15:33.949Z,6.12
2018-07-31T14:18:02.409Z,5.60
2018-07-31T14:20:31.432Z,5.45
2018-07-31T14:22:59.765Z,5.50
2018-07-31T14:25:28.217Z,5.53
2018-07-31T14:27:56.931Z,5.30
2018-07-31T14:30:25.475Z,5.45
2018-07-31T14:32:53.998Z,5.45
2018-07-31T14:35:22.513Z,5.43
2018-07-31T14:37:51.011Z,5.30
2018-07-31T14:40:36.541Z,5.58
2018-07-31T14:43:09.493Z,5.53
2018-07-31T14:45:41.616Z,5.37
2018-07-31T14:48:20.696Z,5.40
2018-07-31T14:51:04.141Z,5.45
2018-07-31T14:53:36.997Z,5.47
2018-07-31T14:56:09.089Z,6.03
2018-07-31T14:58:39.353Z,5.62
2018-07-31T15:03:54.307Z,5.30
2018-07-31T15:06:24.815Z,5.22
2018-07-31T15:09:13.449Z,5.12
2018-07-31T15:11:42.037Z,5.50
2018-07-31T15:14:10.499Z,5.27
2018-07-31T15:16:39.037Z,5.22
2018-07-31T15:19:07.420Z,5.50
2018-07-31T15:21:35.932Z,5.30
2018-07-31T15:24:04.436Z,5.45
2018-07-31T15:26:32.895Z,5.20
2018-07-31T15:29:01.395Z,5.57
2018-07-31T15:31:29.894Z,5.90
2018-07-31T15:33:58.391Z,5.50
2018-07-31T15:36:26.908Z,5.90
2018-07-31T15:38:55.435Z,5.70
2018-07-31T15:41:23.989Z,6.10
2018-07-31T15:43:52.559Z,5.70
2018-07-31T15:46:21.008Z,6.35
2018-07-31T15:48:49.565Z,6.07
2018-07-31T15:51:18.519Z,5.60
2018-07-31T15:53:47.044Z,5.67
2018-07-31T15:56:15.946Z,5.37
2018-07-31T15:58:44.398Z,5.55
2018-07-31T16:01:13.484Z,5.85
2018-07-31T16:03:42.052Z,5.58
2018-07-31T16:06:10.868Z,5.40
2018-07-31T16:08:39.830Z,5.55
2018-07-31T16:11:08.778Z,5.12
2018-07-31T16:13:37.297Z,5.90
2018-07-31T16:16:05.782Z,5.72
2018-07-31T16:18:35.087Z,5.75
2018-07-31T16:21:11.089Z,5.72
2018-07-31T16:23:39.649Z,5.55
2018-07-31T16:26:08.229Z,5.58
2018-07-31T16:28:37.665Z,5.62
2018-07-31T16:31:11.443Z,6.17
2018-07-31T16:33:40.107Z,5.22
2018-07-31T16:36:08.619Z,5.37
2018-07-31T16:38:37.219Z,5.17
2018-07-31T16:41:05.644Z,5.72
2018-07-31T16:43:34.041Z,5.60
2018-07-31T16:46:02.564Z,6.00
2018-07-31T16:48:31.211Z,5.87
2018-07-31T16:50:59.798Z,5.70
2018-07-31T16:53:28.381Z,5.58
2018-07-31T16:55:57.030Z,5.80
2018-07-31T16:58:25.559Z,5.72
2018-07-31T17:00:54.117Z,5.75
2018-07-31T17:03:22.728Z,5.83
2018-07-31T17:05:58.036Z,5.72
2018-07-31T17:08:26.558Z,5.70
2018-07-31T17:11:17.675Z,5.40
2018-07-31T17:13:46.137Z,5.47
2018-07-31T17:16:14.711Z,5.65
2018-07-31T17:18:43.197Z,6.10
2018-07-31T17:21:11.892Z,5.90
2018-07-31T17:23:40.347Z,5.67
2018-07-31T17:26:08.831Z,5.28
2018-07-31T17:28:37.286Z,5.20
2018-07-31T17:31:15.240Z,5.33
2018-07-31T17:33:43.781Z,5.45
2018-07-31T17:36:13.400Z,5.40
2018-07-31T17:38:42.087Z,5.40
2018-07-31T17:41:15.695Z,5.10
2018-07-31T17:43:44.264Z,5.50
2018-07-31T17:46:12.720Z,5.40
2018-07-31T17:48:41.343Z,5.33
2018-07-31T17:51:11.065Z,5.33
2018-07-31T17:53:40.563Z,5.70
2018-07-31T17:56:09.068Z,5.60
2018-07-31T17:58:37.616Z,5.53
2018-07-31T18:01:11.187Z,5.45
2018-07-31T18:03:39.749Z,5.60
2018-07-31T18:06:08.309Z,5.10
2018-07-31T18:08:37.727Z,5.60
2018-07-31T18:11:06.303Z,5.47
2018-07-31T18:13:34.843Z,5.57
2018-07-31T18:16:04.327Z,6.30
2018-07-31T18:18:32.835Z,5.65
2018-07-31T18:21:01.388Z,5.83
2018-07-31T18:23:30.053Z,5.50
2018-07-31T18:25:59.747Z,5.30
2018-07-31T18:28:29.351Z,5.80
2018-07-31T18:30:58.156Z,5.80
2018-07-31T18:33:27.459Z,5.95
2018-07-31T18:35:57.150Z,5.78
2018-07-31T18:38:26.193Z,5.67
2018-07-31T18:40:55.754Z,5.90
2018-07-31T18:43:25.649Z,5.95
2018-07-31T18:45:54.498Z,6.10
2018-07-31T18:48:24.068Z,5.72
2018-07-31T18:50:52.946Z,5.97
2018-07-31T18:53:21.947Z,6.10
2018-07-31T18:55:50.417Z,5.97
2018-07-31T18:58:19.605Z,5.78
2018-07-31T19:00:50.010Z,6.17
2018-07-31T19:03:20.276Z,6.10
2018-07-31T19:05:49.575Z,6.10
2018-07-31T19:08:19.740Z,5.78
2018-07-31T19:10:48.867Z,5.95
2018-07-31T19:13:17.917Z,6.15
2018-07-31T19:15:47.693Z,6.03
2018-07-31T19:18:17.483Z,5.80
2018-07-31T19:20:47.169Z,6.50
2018-07-31T19:23:15.853Z,6.60
2018-07-31T19:25:44.635Z,7.40
2018-07-31T19:28:14.406Z,6.28
2018-07-31T19:30:42.878Z,7.00
2018-07-31T19:33:12.445Z,6.85
2018-07-31T19:35:40.933Z,6.70
2018-07-31T19:38:09.418Z,6.45
2018-07-31T19:40:37.909Z,5.83
2018-07-31T19:43:06.680Z,6.30
2018-07-31T19:45:35.213Z,6.47
2018-07-31T19:48:03.848Z,6.65
2018-07-31T19:50:32.365Z,6.33
2018-07-31T19:53:02.865Z,6.10
2018-07-31T19:55:31.382Z,6.60
2018-07-31T19:58:00.821Z,5.90
2018-07-31T20:00:29.972Z,5.92
2018-07-31T20:02:58.536Z,6.28
2018-07-31T20:05:27.746Z,5.65
2018-07-31T20:07:57.225Z,5.67
2018-07-31T20:10:25.933Z,5.15
2018-07-31T20:12:54.786Z,5.22
2018-07-31T20:15:23.324Z,5.30
2018-07-31T20:17:51.855Z,5.20
2018-07-31T20:20:20.513Z,5.80
2018-07-31T20:22:49.179Z,5.12
2018-07-31T20:25:17.658Z,5.90
2018-07-31T20:27:46.843Z,6.00
2018-07-31T20:30:15.499Z,5.40
2018-07-31T20:32:45.099Z,5.80
2018-07-31T20:35:13.705Z,5.53
2018-07-31T20:37:42.348Z,6.10
2018-07-31T20:40:10.963Z,5.15
2018-07-31T20:42:48.989Z,5.42
2018-07-31T20:45:17.574Z,6.15
2018-07-31T20:47:46.279Z,5.45
2018-07-31T20:50:18.733Z,5.47
2018-07-31T20:52:56.824Z,5.85
2018-07-31T20:55:25.416Z,5.97
2018-07-31T20:57:54.080Z,5.92
2018-07-31T21:00:22.710Z,6.00
2018-07-31T21:02:53.476Z,6.12
2018-07-31T21:05:22.068Z,5.85
2018-07-31T21:07:50.748Z,5.58
2018-07-31T21:10:19.486Z,6.05
2018-07-31T21:12:48.006Z,5.87
2018-07-31T21:15:17.674Z,5.67
2018-07-31T21:17:46.860Z,5.58
2018-07-31T21:20:15.844Z,6.10
2018-07-31T21:22:50.282Z,5.22
2018-07-31T21:25:19.898Z,6.00
2018-07-31T21:27:49.398Z,5.60
2018-07-31T21:30:18.472Z,5.45
2018-07-31T21:32:47.904Z,5.50
2018-07-31T21:35:17.180Z,5.78
2018-07-31T21:37:46.494Z,5.30
2018-07-31T21:40:14.998Z,5.55
2018-07-31T21:42:44.090Z,5.45
2018-07-31T21:45:13.649Z,5.67
2018-07-31T21:47:42.227Z,5.92
2018-07-31T21:50:10.968Z,6.22
2018-07-31T21:52:45.950Z,5.72
2018-07-31T21:55:14.455Z,5.95
2018-07-31T21:57:43.452Z,5.67
2018-07-31T22:00:12.753Z,5.87
2018-07-31T22:02:41.314Z,5.72
2018-07-31T22:05:10.443Z,6.05
2018-07-31T22:07:39.604Z,5.58
2018-07-31T22:10:08.801Z,5.80
2018-07-31T22:12:37.413Z,5.58
2018-07-31T22:15:06.090Z,6.05
2018-07-31T23:29:27.352Z,4.33
2018-07-31T23:31:57.514Z,4.53
2018-07-31T23:34:27.398Z,4.70
2018-07-31T23:36:56.232Z,4.33
2018-07-31T23:39:24.946Z,4.55
2018-07-31T23:41:56.076Z,4.65
2018-07-31T23:44:28.850Z,4.42
2018-07-31T23:46:58.278Z,4.47
2018-07-31T23:49:29.622Z,4.60
2018-07-31T23:51:59.232Z,5.33
2018-07-31T23:54:34.062Z,4.90
2018-07-31T23:57:08.168Z,4.92
2018-07-31T23:59:39.920Z,5.08
